Time,TemperatureF,DewpointF,PressureIn,WindDirection,WindDirectionDegrees,WindSpeedMPH,WindSpeedGustMPH,Humidity,HourlyPrecipIn,Conditions,Clouds,dailyrainin,SoftwareType,DateUTC
2013-05-30 00:04:00,72.1,40.7,0.00,SE,144,0.0,4.0,32,0.00,,SKC,0.00,VWS V14.00,2013-05-30 04:04:00,
2013-05-30 00:09:00,72.0,40.5,0.00,SE,144,0.0,4.0,32,0.00,,SKC,0.00,VWS V14.00,2013-05-30 04:09:00,
2013-05-30 00:14:00,71.8,40.4,0.00,SE,144,0.0,4.0,32,0.00,,SKC,0.00,VWS V14.00,2013-05-30 04:14:00,
2013-05-30 00:19:00,71.6,40.2,0.00,SE,144,0.0,4.0,32,0.00,,SKC,0.00,VWS V14.00,2013-05-30 04:19:00,
2013-05-30 00:22:00,70.3,39.1,0.00,SE,141,0.0,0.0,32,0.00,,SKC,0.39,VWS V14.00,2013-05-30 04:22:00,
2013-05-30 00:23:00,70.3,39.1,0.00,SE,141,0.0,0.0,32,0.00,,SKC,0.00,VWS V14.00,2013-05-30 04:23:00,
2013-05-30 00:24:00,71.6,40.2,0.00,SE,144,0.0,4.0,32,0.00,,SKC,0.00,VWS V14.00,2013-05-30 04:24:00,
2013-05-30 00:25:00,70.3,39.1,0.00,SE,141,0.0,0.0,32,0.00,,SKC,0.00,VWS V14.00,2013-05-30 04:25:00,
2013-05-30 00:26:00,70.5,39.3,0.00,SE,141,0.0,0.0,32,0.00,,SKC,0.00,VWS V14.00,2013-05-30 04:26:00,
2013-05-30 00:29:00,71.4,40.0,0.00,SE,144,0.0,4.0,32,0.00,,SKC,0.00,VWS V14.00,2013-05-30 04:29:00,
2013-05-30 00:31:00,70.5,39.3,0.00,SE,129,0.0,0.0,32,0.00,,SKC,0.00,VWS V14.00,2013-05-30 04:31:00,
2013-05-30 00:32:00,70.5,39.3,0.00,SE,129,0.0,0.0,32,0.00,,SKC,0.00,VWS V14.00,2013-05-30 04:32:00,
2013-05-30 00:33:00,70.5,39.3,0.00,SE,129,0.0,0.0,32,0.00,,SKC,0.00,VWS V14.00,2013-05-30 04:33:00,
2013-05-30 00:34:00,71.4,40.0,0.00,SE,143,0.0,4.0,32,0.00,,SKC,0.00,VWS V14.00,2013-05-30 04:34:00,
2013-05-30 00:35:00,70.3,39.1,0.00,SE,129,0.0,0.0,32,0.00,,SKC,0.00,VWS V14.00,2013-05-30 04:35:00,
2013-05-30 00:41:00,71.4,40.0,0.00,SE,143,0.0,4.0,32,0.00,,SKC,0.00,VWS V14.00,2013-05-30 04:41:00,
2013-05-30 00:46:00,71.2,39.9,0.00,SE,143,0.0,4.0,32,0.00,,SKC,0.00,VWS V14.00,2013-05-30 04:46:00,
2013-05-30 00:51:00,71.1,39.7,0.00,SE,143,0.0,4.0,32,0.00,,SKC,0.00,VWS V14.00,2013-05-30 04:51:00,
2013-05-30 00:56:00,71.1,39.7,0.00,SE,143,0.0,4.0,32,0.00,,SKC,0.00,VWS V14.00,2013-05-30 04:56:00,
2013-05-30 01:01:00,71.1,39.7,0.00,SE,143,0.0,0.0,32,0.00,,SKC,0.00,VWS V14.00,2013-05-30 05:01:00,
2013-05-30 01:06:00,70.9,39.6,0.00,SE,143,0.0,0.0,32,0.00,,SKC,0.00,VWS V14.00,2013-05-30 05:06:00,
2013-05-30 01:11:00,70.9,39.6,0.00,SE,141,0.0,0.0,32,0.00,,SKC,0.00,VWS V14.00,2013-05-30 05:11:00,
2013-05-30 01:16:00,70.7,39.4,0.00,SE,141,0.0,0.0,32,0.00,,SKC,0.00,VWS V14.00,2013-05-30 05:16:00,
2013-05-30 01:21:00,70.5,39.3,0.00,SE,141,0.0,0.0,32,0.00,,SKC,0.00,VWS V14.00,2013-05-30 05:21:00,
2013-05-30 01:26:00,70.3,39.1,0.00,SE,141,0.0,0.0,32,0.00,,SKC,0.00,VWS V14.00,2013-05-30 05:26:00,
2013-05-30 01:33:00,70.5,39.3,0.00,SE,141,0.0,0.0,32,0.00,,SKC,0.00,VWS V14.00,2013-05-30 05:33:00,
2013-05-30 01:41:00,70.5,39.3,0.00,SE,129,0.0,0.0,32,0.00,,SKC,0.00,VWS V14.00,2013-05-30 05:41:00,
2013-05-30 01:46:00,70.3,39.1,0.00,SE,129,0.0,0.0,32,0.00,,SKC,0.00,VWS V14.00,2013-05-30 05:46:00,
2013-05-30 01:51:00,70.3,39.1,0.00,SE,129,2.2,3.1,32,0.00,,SKC,0.00,VWS V14.00,2013-05-30 05:51:00,
2013-05-30 01:56:00,70.5,39.3,0.00,ESE,109,0.0,3.1,32,0.00,,SKC,0.00,VWS V14.00,2013-05-30 05:56:00,
2013-05-30 02:01:00,70.5,39.3,0.00,ESE,109,0.0,3.1,32,0.00,,SKC,0.00,VWS V14.00,2013-05-30 06:01:00,
2013-05-30 02:06:00,70.7,39.4,0.00,SE,140,0.0,3.1,32,0.00,,SKC,0.00,VWS V14.00,2013-05-30 06:06:00,
2013-05-30 02:11:00,70.7,39.4,0.00,East,82,2.7,3.1,32,0.00,,SKC,0.00,VWS V14.00,2013-05-30 06:11:00,
2013-05-30 02:16:00,70.7,39.4,0.00,SE,133,0.0,4.0,32,0.00,,SKC,0.00,VWS V14.00,2013-05-30 06:16:00,
2013-05-30 02:21:00,70.5,39.3,0.00,SE,133,0.0,4.0,32,0.00,,SKC,0.00,VWS V14.00,2013-05-30 06:21:00,
2013-05-30 02:22:00,69.8,38.6,0.00,SE,138,3.1,4.0,32,0.00,,SKC,0.39,VWS V14.00,2013-05-30 06:22:00,
2013-05-30 02:23:00,69.8,38.6,0.00,SE,138,2.7,4.0,32,0.00,,SKC,0.00,VWS V14.00,2013-05-30 06:23:00,
2013-05-30 02:24:00,69.8,38.6,0.00,SE,138,2.2,4.0,32,0.00,,SKC,0.00,VWS V14.00,2013-05-30 06:24:00,
2013-05-30 02:25:00,69.8,38.6,0.00,SE,138,0.0,4.0,32,0.00,,SKC,0.00,VWS V14.00,2013-05-30 06:25:00,
2013-05-30 02:26:00,70.5,39.3,0.00,SE,133,0.0,4.0,32,0.00,,SKC,0.00,VWS V14.00,2013-05-30 06:26:00,
2013-05-30 02:31:00,70.3,39.1,0.00,SE,133,0.0,4.0,32,0.00,,SKC,0.00,VWS V14.00,2013-05-30 06:31:00,
2013-05-30 02:36:00,70.3,39.1,0.00,SE,130,0.0,4.0,32,0.00,,SKC,0.00,VWS V14.00,2013-05-30 06:36:00,
2013-05-30 02:41:00,70.2,39.0,0.00,SE,130,0.0,4.0,32,0.00,,SKC,0.00,VWS V14.00,2013-05-30 06:41:00,
2013-05-30 02:46:00,70.0,38.8,0.00,SE,130,0.0,4.0,32,0.00,,SKC,0.00,VWS V14.00,2013-05-30 06:46:00,
2013-05-30 02:51:00,69.8,38.6,0.00,SE,140,0.0,4.9,32,0.00,,SKC,0.00,VWS V14.00,2013-05-30 06:51:00,
2013-05-30 02:57:00,69.6,39.3,0.00,ESE,123,0.0,4.9,33,0.00,,SKC,0.00,VWS V14.00,2013-05-30 06:57:00,
2013-05-30 03:02:00,69.8,38.6,0.00,SE,126,0.0,0.0,32,0.00,,SKC,0.00,VWS V14.00,2013-05-30 07:02:00,
2013-05-30 03:07:00,69.8,38.6,0.00,SE,129,2.2,3.1,32,0.00,,SKC,0.00,VWS V14.00,2013-05-30 07:07:00,
2013-05-30 03:12:00,69.8,38.6,0.00,SE,129,3.6,3.6,32,0.00,,SKC,0.00,VWS V14.00,2013-05-30 07:12:00,
2013-05-30 03:17:00,69.8,38.6,0.00,SE,126,0.0,3.6,32,0.00,,SKC,0.00,VWS V14.00,2013-05-30 07:17:00,
2013-05-30 03:22:00,69.8,38.6,0.00,SE,125,0.0,3.6,32,0.00,,SKC,0.00,VWS V14.00,2013-05-30 07:22:00,
2013-05-30 03:27:00,69.8,38.6,0.00,SE,140,0.0,3.6,32,0.00,,SKC,0.00,VWS V14.00,2013-05-30 07:27:00,
2013-05-30 03:33:00,69.8,38.6,0.00,SE,138,0.0,4.0,32,0.00,,SKC,0.00,VWS V14.00,2013-05-30 07:33:00,
2013-05-30 03:38:00,69.8,38.6,0.00,SE,126,0.0,4.0,32,0.00,,SKC,0.00,VWS V14.00,2013-05-30 07:38:00,
2013-05-30 03:43:00,69.8,38.6,0.00,ESE,120,0.0,4.0,32,0.00,,SKC,0.00,VWS V14.00,2013-05-30 07:43:00,
2013-05-30 03:48:00,69.6,39.3,0.00,SE,140,0.0,4.0,33,0.00,,SKC,0.00,VWS V14.00,2013-05-30 07:48:00,
2013-05-30 03:53:00,69.4,39.1,0.00,SSW,209,0.0,4.0,33,0.00,,SKC,0.00,VWS V14.00,2013-05-30 07:53:00,
2013-05-30 03:58:00,69.4,39.1,0.00,SSW,209,0.0,4.0,33,0.00,,SKC,0.00,VWS V14.00,2013-05-30 07:58:00,
2013-05-30 04:03:00,69.3,39.0,0.00,SW,216,0.0,4.0,33,0.00,,SKC,0.00,VWS V14.00,2013-05-30 08:03:00,
2013-05-30 04:08:00,69.3,39.0,0.00,SW,217,0.0,4.0,33,0.00,,SKC,0.00,VWS V14.00,2013-05-30 08:08:00,
2013-05-30 04:13:00,69.4,39.1,0.00,SE,127,0.0,4.0,33,0.00,,SKC,0.00,VWS V14.00,2013-05-30 08:13:00,
2013-05-30 04:18:00,69.3,39.0,0.00,SE,127,0.0,4.0,33,0.00,,SKC,0.00,VWS V14.00,2013-05-30 08:18:00,
2013-05-30 04:22:00,68.9,38.6,0.00,ESE,117,0.0,4.9,33,0.00,,SKC,0.39,VWS V14.00,2013-05-30 08:22:00,
2013-05-30 04:23:00,69.1,38.8,0.00,SE,127,0.0,4.0,33,0.00,,SKC,0.00,VWS V14.00,2013-05-30 08:23:00,
2013-05-30 04:24:00,68.9,38.6,0.00,SE,141,0.0,4.9,33,0.00,,SKC,0.00,VWS V14.00,2013-05-30 08:24:00,
2013-05-30 04:25:00,68.9,38.6,0.00,SE,141,0.0,4.9,33,0.00,,SKC,0.00,VWS V14.00,2013-05-30 08:25:00,
2013-05-30 04:26:00,68.7,38.5,0.00,SE,141,0.0,4.9,33,0.00,,SKC,0.00,VWS V14.00,2013-05-30 08:26:00,
2013-05-30 04:28:00,68.9,38.6,0.00,SE,127,0.0,4.0,33,0.00,,SKC,0.00,VWS V14.00,2013-05-30 08:28:00,
2013-05-30 04:33:00,68.7,38.5,0.00,SE,127,0.0,4.0,33,0.00,,SKC,0.00,VWS V14.00,2013-05-30 08:33:00,
2013-05-30 04:38:00,68.7,38.5,0.00,SSE,155,0.0,4.0,33,0.00,,SKC,0.00,VWS V14.00,2013-05-30 08:38:00,
2013-05-30 04:43:00,68.9,38.6,0.00,SSE,148,0.0,4.0,33,0.00,,SKC,0.00,VWS V14.00,2013-05-30 08:43:00,
2013-05-30 04:48:00,68.9,38.6,0.00,SSE,149,2.7,4.0,33,0.00,,SKC,0.00,VWS V14.00,2013-05-30 08:48:00,
2013-05-30 04:53:00,68.9,38.6,0.00,SE,138,0.0,4.0,33,0.00,,SKC,0.00,VWS V14.00,2013-05-30 08:53:00,
2013-05-30 04:58:00,68.7,38.5,0.00,ESE,111,2.7,4.9,33,0.00,,SKC,0.00,VWS V14.00,2013-05-30 08:58:00,
2013-05-30 05:03:00,68.7,38.5,0.00,SSE,149,0.0,3.1,33,0.00,,SKC,0.00,VWS V14.00,2013-05-30 09:03:00,
2013-05-30 05:08:00,68.9,38.6,0.00,SSE,148,0.0,3.1,33,0.00,,SKC,0.00,VWS V14.00,2013-05-30 09:08:00,
2013-05-30 05:13:00,68.9,38.6,0.00,SSE,147,0.0,3.1,33,0.00,,SKC,0.00,VWS V14.00,2013-05-30 09:13:00,
2013-05-30 05:18:00,68.9,38.6,0.00,SE,143,0.0,4.9,33,0.00,,SKC,0.00,VWS V14.00,2013-05-30 09:18:00,
2013-05-30 05:23:00,68.9,38.6,0.00,ESE,113,2.2,4.9,33,0.00,,SKC,0.00,VWS V14.00,2013-05-30 09:23:00,
2013-05-30 05:28:00,68.9,38.6,0.00,ESE,117,0.0,4.9,33,0.00,,SKC,0.00,VWS V14.00,2013-05-30 09:28:00,
2013-05-30 05:31:00,68.9,38.6,0.00,SE,132,2.7,4.9,33,0.00,,SKC,0.00,VWS V14.00,2013-05-30 09:31:00,
2013-05-30 05:32:00,68.9,38.6,0.00,SE,132,0.0,4.9,33,0.00,,SKC,0.00,VWS V14.00,2013-05-30 09:32:00,
2013-05-30 05:33:00,68.7,38.5,0.00,SE,141,0.0,4.9,33,0.00,,SKC,0.00,VWS V14.00,2013-05-30 09:33:00,
2013-05-30 05:38:00,68.7,38.5,0.00,SE,139,0.0,4.9,33,0.00,,SKC,0.00,VWS V14.00,2013-05-30 09:38:00,
2013-05-30 05:43:00,68.7,38.5,0.00,SE,139,0.0,4.9,33,0.00,,SKC,0.00,VWS V14.00,2013-05-30 09:43:00,
2013-05-30 05:48:00,68.7,38.5,0.00,SE,138,2.7,4.9,33,0.00,,SKC,0.00,VWS V14.00,2013-05-30 09:48:00,
2013-05-30 05:53:00,68.7,38.5,0.00,SE,126,0.0,4.9,33,0.00,,SKC,0.00,VWS V14.00,2013-05-30 09:53:00,
2013-05-30 05:58:00,68.7,38.5,0.00,SE,126,0.0,4.9,33,0.00,,SKC,0.00,VWS V14.00,2013-05-30 09:58:00,
2013-05-30 06:03:00,68.7,38.5,0.00,SE,132,0.0,4.9,33,0.00,,SKC,0.00,VWS V14.00,2013-05-30 10:03:00,
2013-05-30 06:08:00,68.7,38.5,0.00,SE,139,0.0,4.9,33,0.00,,SKC,0.00,VWS V14.00,2013-05-30 10:08:00,
2013-05-30 06:13:00,68.7,38.5,0.00,SE,132,0.0,4.9,33,0.00,,SKC,0.00,VWS V14.00,2013-05-30 10:13:00,
2013-05-30 06:18:00,68.7,38.5,0.00,SE,145,0.0,4.9,33,0.00,,SKC,0.00,VWS V14.00,2013-05-30 10:18:00,
2013-05-30 06:22:00,73.9,41.4,0.00,SE,130,3.1,5.4,31,0.00,,SKC,0.39,VWS V14.00,2013-05-30 10:22:00,
2013-05-30 06:23:00,68.9,38.6,0.00,SE,136,0.0,4.9,33,0.00,,SKC,0.00,VWS V14.00,2013-05-30 10:23:00,
2013-05-30 06:24:00,75.7,43.0,0.00,SE,132,2.2,5.4,31,0.00,,SKC,0.00,VWS V14.00,2013-05-30 10:24:00,
2013-05-30 06:25:00,76.8,43.9,0.00,SE,132,0.0,5.4,31,0.00,,SKC,0.00,VWS V14.00,2013-05-30 10:25:00,
2013-05-30 06:26:00,76.8,43.9,0.00,ESE,123,3.1,5.4,31,0.00,,SKC,0.00,VWS V14.00,2013-05-30 10:26:00,
2013-05-30 06:28:00,68.9,38.6,0.00,SE,136,0.0,4.9,33,0.00,,SKC,0.00,VWS V14.00,2013-05-30 10:28:00,
2013-05-30 06:31:00,76.8,43.9,0.00,SE,130,3.1,5.4,31,0.00,,SKC,0.00,VWS V14.00,2013-05-30 10:31:00,
2013-05-30 06:32:00,76.8,43.9,0.00,SE,127,3.1,5.4,31,0.00,,SKC,0.00,VWS V14.00,2013-05-30 10:32:00,
2013-05-30 06:33:00,68.9,38.6,0.00,SE,130,0.0,4.9,33,0.00,,SKC,0.00,VWS V14.00,2013-05-30 10:33:00,
2013-05-30 06:34:00,76.8,43.9,0.00,SE,134,5.4,5.4,31,0.00,,SKC,0.00,VWS V14.00,2013-05-30 10:34:00,
2013-05-30 06:35:00,76.8,43.9,0.00,SE,129,3.6,5.4,31,0.00,,SKC,0.00,VWS V14.00,2013-05-30 10:35:00,
2013-05-30 06:40:00,68.9,38.6,0.00,ESE,119,2.2,4.9,33,0.00,,SKC,0.39,VWS V14.00,2013-05-30 10:40:00,
2013-05-30 06:45:00,69.1,38.8,0.00,SE,126,3.1,5.4,33,0.00,,SKC,0.00,VWS V14.00,2013-05-30 10:45:00,
2013-05-30 06:50:00,69.1,38.8,0.00,SE,127,0.0,5.4,33,0.00,,SKC,0.00,VWS V14.00,2013-05-30 10:50:00,
2013-05-30 06:55:00,69.1,38.8,0.00,SE,127,0.0,5.4,33,0.00,,SKC,0.00,VWS V14.00,2013-05-30 10:55:00,
2013-05-30 07:00:00,69.1,38.8,0.00,SSE,150,0.0,0.0,33,0.00,,SKC,0.00,VWS V14.00,2013-05-30 11:00:00,
2013-05-30 07:05:00,69.1,38.8,0.00,SSE,158,0.0,3.1,33,0.00,,SKC,0.00,VWS V14.00,2013-05-30 11:05:00,
2013-05-30 07:10:00,69.4,39.1,0.00,SE,143,0.0,3.6,33,0.00,,SKC,0.00,VWS V14.00,2013-05-30 11:10:00,
2013-05-30 07:15:00,69.4,39.1,0.00,SE,131,3.1,4.0,33,0.00,,SKC,0.00,VWS V14.00,2013-05-30 11:15:00,
2013-05-30 07:16:00,83.5,47.9,0.00,SSE,149,3.6,10.1,29,0.00,,SKC,0.00,VWS V14.00,2013-05-30 11:16:00,
2013-05-30 07:17:00,82.0,47.6,0.00,SE,138,5.8,10.1,30,0.00,,SKC,0.00,VWS V14.00,2013-05-30 11:17:00,
2013-05-30 07:18:00,82.0,47.6,0.00,SE,143,4.0,10.1,30,0.00,,SKC,0.00,VWS V14.00,2013-05-30 11:18:00,
2013-05-30 07:19:00,81.7,47.3,0.00,SSW,211,2.7,10.1,30,0.00,,SKC,0.00,VWS V14.00,2013-05-30 11:19:00,
2013-05-30 07:20:00,70.3,39.1,0.00,SSE,149,0.0,4.0,32,0.00,,SKC,0.00,VWS V14.00,2013-05-30 11:20:00,
2013-05-30 07:23:00,84.7,49.0,0.00,SE,143,6.3,10.1,29,0.00,,SKC,0.00,VWS V14.00,2013-05-30 11:23:00,
2013-05-30 07:24:00,83.5,47.9,0.00,SSE,156,2.7,10.1,29,0.00,,SKC,0.00,VWS V14.00,2013-05-30 11:24:00,
2013-05-30 07:25:00,70.3,39.1,0.00,SSW,202,2.7,4.9,32,0.00,,SKC,0.00,VWS V14.00,2013-05-30 11:25:00,
2013-05-30 07:26:00,82.8,47.3,0.00,ESE,122,2.7,10.1,29,0.00,,SKC,0.00,VWS V14.00,2013-05-30 11:26:00,
2013-05-30 07:27:00,84.7,49.0,0.00,SE,131,6.3,10.1,29,0.00,,SKC,0.00,VWS V14.00,2013-05-30 11:27:00,
2013-05-30 07:33:00,76.8,43.9,0.00,SE,132,0.0,5.4,31,0.00,,SKC,0.00,VWS V14.00,2013-05-30 11:33:00,
2013-05-30 07:41:00,76.8,43.9,0.00,SE,127,3.1,5.4,31,0.00,,SKC,0.00,VWS V14.00,2013-05-30 11:41:00,
2013-05-30 07:46:00,79.3,45.2,0.00,SE,140,2.7,5.4,30,0.00,,SKC,0.00,VWS V14.00,2013-05-30 11:46:00,
2013-05-30 07:51:00,81.1,46.8,0.00,SE,124,3.1,5.4,30,0.00,,SKC,0.00,VWS V14.00,2013-05-30 11:51:00,
2013-05-30 07:56:00,81.7,47.3,0.00,SSE,148,5.4,6.3,30,0.00,,SKC,0.00,VWS V14.00,2013-05-30 11:56:00,
2013-05-30 08:01:00,82.9,47.5,0.00,ESE,122,5.4,6.3,29,0.00,,SKC,0.00,VWS V14.00,2013-05-30 12:01:00,
2013-05-30 08:06:00,81.9,47.4,0.00,SSW,193,3.6,10.1,30,0.00,,SKC,0.00,VWS V14.00,2013-05-30 12:06:00,
2013-05-30 08:11:00,82.2,47.7,0.00,SSE,153,0.0,10.1,30,0.00,,SKC,0.00,VWS V14.00,2013-05-30 12:11:00,
2013-05-30 08:16:00,83.7,48.1,0.00,SW,231,2.2,10.1,29,0.00,,SKC,0.00,VWS V14.00,2013-05-30 12:16:00,
2013-05-30 08:21:00,84.9,49.2,0.00,SSE,154,5.4,10.1,29,0.00,,SKC,0.00,VWS V14.00,2013-05-30 12:21:00,
2013-05-30 08:22:00,85.6,49.8,0.00,SSW,208,5.4,11.0,29,0.00,,SKC,0.39,VWS V14.00,2013-05-30 12:22:00,
2013-05-30 08:23:00,85.1,49.3,0.00,SSE,157,3.1,11.0,29,0.00,,SKC,0.00,VWS V14.00,2013-05-30 12:23:00,
2013-05-30 08:24:00,85.8,49.9,0.00,SSW,211,2.2,11.0,29,0.00,,SKC,0.00,VWS V14.00,2013-05-30 12:24:00,
2013-05-30 08:25:00,85.8,49.9,0.00,SSW,211,0.0,11.0,29,0.00,,SKC,0.00,VWS V14.00,2013-05-30 12:25:00,
2013-05-30 08:26:00,81.7,47.3,0.00,SSE,147,5.4,10.1,30,0.00,,SKC,0.00,VWS V14.00,2013-05-30 12:26:00,
2013-05-30 08:27:00,87.6,51.5,0.00,SW,214,3.6,11.0,29,0.00,,SKC,0.00,VWS V14.00,2013-05-30 12:27:00,
2013-05-30 08:28:00,87.6,51.5,0.00,SW,214,2.7,11.0,29,0.00,,SKC,0.00,VWS V14.00,2013-05-30 12:28:00,
2013-05-30 08:29:00,87.4,51.3,0.00,South,182,5.4,11.0,29,0.00,,SKC,0.00,VWS V14.00,2013-05-30 12:29:00,
2013-05-30 08:30:00,86.9,50.8,0.00,SSW,204,7.6,11.0,29,0.00,,SKC,0.00,VWS V14.00,2013-05-30 12:30:00,
2013-05-30 08:31:00,83.5,47.9,0.00,SSE,156,3.1,10.1,29,0.00,,SKC,0.00,VWS V14.00,2013-05-30 12:31:00,
2013-05-30 08:32:00,86.0,50.1,0.00,SE,133,3.1,11.0,29,0.00,,SKC,0.00,VWS V14.00,2013-05-30 12:32:00,
2013-05-30 08:36:00,82.9,47.5,0.00,South,186,2.7,10.1,29,0.00,,SKC,0.00,VWS V14.00,2013-05-30 12:36:00,
2013-05-30 08:41:00,84.2,48.5,0.00,SW,219,4.0,10.1,29,0.00,,SKC,0.00,VWS V14.00,2013-05-30 12:41:00,
2013-05-30 08:42:00,86.7,50.7,0.00,SE,125,6.3,11.0,29,0.00,,SKC,0.00,VWS V14.00,2013-05-30 12:42:00,
2013-05-30 08:43:00,86.7,50.7,0.00,SE,125,6.3,11.0,29,0.00,,SKC,0.00,VWS V14.00,2013-05-30 12:43:00,
2013-05-30 08:44:00,86.7,50.7,0.00,SE,134,5.8,11.0,29,0.00,,SKC,0.00,VWS V14.00,2013-05-30 12:44:00,
2013-05-30 08:45:00,87.6,51.5,0.00,South,171,7.6,11.0,29,0.00,,SKC,0.00,VWS V14.00,2013-05-30 12:45:00,
2013-05-30 08:46:00,82.4,47.0,0.00,SSE,164,2.7,10.1,29,0.00,,SKC,0.00,VWS V14.00,2013-05-30 12:46:00,
2013-05-30 08:51:00,84.9,49.2,0.00,SSW,200,2.7,10.1,29,0.00,,SKC,0.00,VWS V14.00,2013-05-30 12:51:00,
2013-05-30 08:56:00,86.7,50.7,0.00,SSW,208,2.7,10.1,29,0.00,,SKC,0.00,VWS V14.00,2013-05-30 12:56:00,
2013-05-30 09:01:00,86.5,50.5,0.00,South,183,2.7,2.7,29,0.00,,SKC,0.00,VWS V14.00,2013-05-30 13:01:00,
2013-05-30 09:06:00,85.8,49.9,0.00,SE,141,4.0,5.4,29,0.00,,SKC,0.00,VWS V14.00,2013-05-30 13:06:00,
2013-05-30 09:11:00,84.7,49.0,0.00,ESE,113,5.4,6.3,29,0.00,,SKC,0.00,VWS V14.00,2013-05-30 13:11:00,
2013-05-30 09:16:00,83.1,47.6,0.00,SE,135,2.7,6.3,29,0.00,,SKC,0.00,VWS V14.00,2013-05-30 13:16:00,
2013-05-30 09:20:00,84.0,48.4,0.00,SSE,157,4.0,8.7,29,0.00,,SKC,0.00,VWS V14.00,2013-05-30 13:20:00,
2013-05-30 09:25:00,83.5,47.9,0.00,SSE,167,5.4,11.0,29,0.00,,SKC,0.00,VWS V14.00,2013-05-30 13:25:00,
2013-05-30 09:31:00,88.5,51.3,0.00,SSW,210,3.1,11.0,28,0.00,,SKC,0.00,VWS V14.00,2013-05-30 13:31:00,
2013-05-30 09:32:00,86.2,50.2,0.00,SE,136,8.3,11.0,29,0.00,,SKC,0.00,VWS V14.00,2013-05-30 13:32:00,
2013-05-30 09:33:00,85.8,49.9,0.00,SSW,211,0.0,11.0,29,0.00,,SKC,0.00,VWS V14.00,2013-05-30 13:33:00,
2013-05-30 09:34:00,87.8,50.7,0.00,SSW,207,3.6,11.0,28,0.00,,SKC,0.00,VWS V14.00,2013-05-30 13:34:00,
2013-05-30 09:35:00,88.5,51.3,0.00,South,177,8.1,11.0,28,0.00,,SKC,0.00,VWS V14.00,2013-05-30 13:35:00,
2013-05-30 09:36:00,86.2,50.2,0.00,SE,143,6.3,11.0,29,0.00,,SKC,0.00,VWS V14.00,2013-05-30 13:36:00,
2013-05-30 09:38:00,86.9,50.8,0.00,SE,129,8.7,11.0,29,0.00,,SKC,0.00,VWS V14.00,2013-05-30 13:38:00,
2013-05-30 09:43:00,85.3,49.5,0.00,SSE,148,4.9,11.0,29,0.00,,SKC,0.00,VWS V14.00,2013-05-30 13:43:00,
2013-05-30 09:48:00,85.3,49.5,0.00,South,186,5.4,11.0,29,0.00,,SKC,0.00,VWS V14.00,2013-05-30 13:48:00,
2013-05-30 09:53:00,87.6,51.5,0.00,South,171,7.6,11.0,29,0.00,,SKC,0.00,VWS V14.00,2013-05-30 13:53:00,
2013-05-30 09:58:00,84.0,48.4,0.00,SSW,205,6.3,11.0,29,0.00,,SKC,0.00,VWS V14.00,2013-05-30 13:58:00,
2013-05-30 10:03:00,85.5,49.6,0.00,SSE,150,4.9,11.0,29,0.00,,SKC,0.00,VWS V14.00,2013-05-30 14:03:00,
2013-05-30 10:08:00,87.1,51.0,0.00,WSW,254,2.7,11.0,29,0.00,,SKC,0.00,VWS V14.00,2013-05-30 14:08:00,
2013-05-30 10:13:00,89.8,52.4,0.00,SSE,166,2.2,11.0,28,0.00,,SKC,0.00,VWS V14.00,2013-05-30 14:13:00,
2013-05-30 10:18:00,87.3,51.2,0.00,SE,141,7.6,11.0,29,0.00,,SKC,0.00,VWS V14.00,2013-05-30 14:18:00,
2013-05-30 10:22:00,88.0,50.8,0.00,ESE,118,5.8,15.0,28,0.00,,SKC,0.39,VWS V14.00,2013-05-30 14:22:00,
2013-05-30 10:23:00,87.3,51.2,0.00,ESE,119,4.9,11.0,29,0.00,,SKC,0.00,VWS V14.00,2013-05-30 14:23:00,
2013-05-30 10:24:00,86.4,50.4,0.00,WSW,239,3.6,15.0,29,0.00,,SKC,0.00,VWS V14.00,2013-05-30 14:24:00,
2013-05-30 10:25:00,84.7,49.0,0.00,SW,228,4.9,15.0,29,0.00,,SKC,0.00,VWS V14.00,2013-05-30 14:25:00,
2013-05-30 10:26:00,84.9,49.2,0.00,SSE,150,3.6,15.0,29,0.00,,SKC,0.00,VWS V14.00,2013-05-30 14:26:00,
2013-05-30 10:27:00,84.6,48.8,0.00,WNW,285,2.7,15.0,29,0.00,,SKC,0.00,VWS V14.00,2013-05-30 14:27:00,
2013-05-30 10:28:00,86.0,50.1,0.00,SSE,167,3.6,11.0,29,0.00,,SKC,0.00,VWS V14.00,2013-05-30 14:28:00,
2013-05-30 10:33:00,86.7,50.7,0.00,SW,232,3.6,11.0,29,0.00,,SKC,0.00,VWS V14.00,2013-05-30 14:33:00,
2013-05-30 10:39:00,84.2,48.5,0.00,SSW,197,5.8,15.0,29,0.00,,SKC,0.00,VWS V14.00,2013-05-30 14:39:00,
2013-05-30 10:40:00,84.2,48.5,0.00,SSW,207,5.4,15.0,29,0.00,,SKC,0.00,VWS V14.00,2013-05-30 14:40:00,
2013-05-30 10:41:00,87.3,51.2,0.00,SSW,207,3.6,11.0,29,0.00,,SKC,0.00,VWS V14.00,2013-05-30 14:41:00,
2013-05-30 10:42:00,84.0,48.4,0.00,South,170,5.8,15.0,29,0.00,,SKC,0.00,VWS V14.00,2013-05-30 14:42:00,
2013-05-30 10:43:00,84.0,48.4,0.00,SSE,152,3.6,15.0,29,0.00,,SKC,0.00,VWS V14.00,2013-05-30 14:43:00,
2013-05-30 10:44:00,84.0,48.4,0.00,SW,223,7.2,15.0,29,0.00,,SKC,0.00,VWS V14.00,2013-05-30 14:44:00,
2013-05-30 10:46:00,88.0,50.8,0.00,SE,131,5.8,11.0,28,0.00,,SKC,0.00,VWS V14.00,2013-05-30 14:46:00,
2013-05-30 10:51:00,86.9,50.8,0.00,SSW,195,2.7,11.0,29,0.00,,SKC,0.00,VWS V14.00,2013-05-30 14:51:00,
2013-05-30 10:56:00,86.2,50.2,0.00,SSW,203,6.3,11.0,29,0.00,,SKC,0.00,VWS V14.00,2013-05-30 14:56:00,
2013-05-30 10:58:00,84.4,48.7,0.00,South,172,4.0,15.0,29,0.00,,SKC,0.00,VWS V14.00,2013-05-30 14:58:00,
2013-05-30 10:59:00,84.4,48.7,0.00,WSW,241,2.7,15.0,29,0.00,,SKC,0.00,VWS V14.00,2013-05-30 14:59:00,
2013-05-30 11:00:00,84.2,48.5,0.00,South,191,5.4,15.0,29,0.00,,SKC,0.00,VWS V14.00,2013-05-30 15:00:00,
2013-05-30 11:01:00,87.1,51.0,0.00,South,173,5.8,11.0,29,0.00,,SKC,0.00,VWS V14.00,2013-05-30 15:01:00,
2013-05-30 11:06:00,85.5,49.6,0.00,South,173,5.8,11.0,29,0.00,,SKC,0.00,VWS V14.00,2013-05-30 15:06:00,
2013-05-30 11:11:00,85.3,49.5,0.00,SSW,199,5.8,11.0,29,0.00,,SKC,0.00,VWS V14.00,2013-05-30 15:11:00,
2013-05-30 11:16:00,85.8,49.9,0.00,ESE,114,2.7,11.9,29,0.00,,SKC,0.00,VWS V14.00,2013-05-30 15:16:00,
2013-05-30 11:21:00,84.6,48.8,0.00,SSE,163,4.0,15.0,29,0.00,,SKC,0.00,VWS V14.00,2013-05-30 15:21:00,
2013-05-30 11:26:00,86.7,50.7,0.00,West,261,2.7,15.0,29,0.00,,SKC,0.00,VWS V14.00,2013-05-30 15:26:00,
2013-05-30 11:30:00,86.4,50.4,0.00,SSW,198,4.0,15.0,29,0.00,,SKC,0.00,VWS V14.00,2013-05-30 15:30:00,
2013-05-30 11:31:00,86.7,50.7,0.00,ESE,120,4.0,15.0,29,0.00,,SKC,0.00,VWS V14.00,2013-05-30 15:31:00,
2013-05-30 11:32:00,86.7,50.7,0.00,SSE,154,11.0,15.0,29,0.00,,SKC,0.00,VWS V14.00,2013-05-30 15:32:00,
2013-05-30 11:33:00,84.7,49.0,0.00,SSW,197,4.0,15.0,29,0.00,,SKC,0.00,VWS V14.00,2013-05-30 15:33:00,
2013-05-30 11:34:00,86.2,50.2,0.00,SE,143,8.7,15.0,29,0.00,,SKC,0.00,VWS V14.00,2013-05-30 15:34:00,
2013-05-30 11:35:00,86.5,50.5,0.00,ESE,109,6.3,15.0,29,0.00,,SKC,0.00,VWS V14.00,2013-05-30 15:35:00,
2013-05-30 11:36:00,86.7,50.7,0.00,SE,137,2.7,15.0,29,0.00,,SKC,0.00,VWS V14.00,2013-05-30 15:36:00,
2013-05-30 11:37:00,86.5,50.5,0.00,SSE,147,7.6,15.0,29,0.00,,SKC,0.00,VWS V14.00,2013-05-30 15:37:00,
2013-05-30 11:38:00,84.2,48.5,0.00,SSE,164,5.8,15.0,29,0.00,,SKC,0.00,VWS V14.00,2013-05-30 15:38:00,
2013-05-30 11:43:00,84.4,48.7,0.00,SSW,197,4.0,15.0,29,0.00,,SKC,0.00,VWS V14.00,2013-05-30 15:43:00,
2013-05-30 11:48:00,84.2,48.5,0.00,SSW,207,5.4,15.0,29,0.00,,SKC,0.00,VWS V14.00,2013-05-30 15:48:00,
2013-05-30 11:53:00,83.8,48.2,0.00,ESE,123,5.4,15.0,29,0.00,,SKC,0.00,VWS V14.00,2013-05-30 15:53:00,
2013-05-30 11:58:00,84.9,49.2,0.00,SSE,166,3.6,15.0,29,0.00,,SKC,0.00,VWS V14.00,2013-05-30 15:58:00,
2013-05-30 12:03:00,84.2,48.5,0.00,South,172,3.1,15.0,29,0.00,,SKC,0.00,VWS V14.00,2013-05-30 16:03:00,
2013-05-30 12:08:00,84.2,48.5,0.00,South,181,3.1,15.0,29,0.00,,SKC,0.00,VWS V14.00,2013-05-30 16:08:00,
2013-05-30 12:13:00,84.9,49.2,0.00,South,190,5.4,15.0,29,0.00,,SKC,0.00,VWS V14.00,2013-05-30 16:13:00,
2013-05-30 12:18:00,86.0,50.1,0.00,SSW,202,8.1,15.0,29,0.00,,SKC,0.00,VWS V14.00,2013-05-30 16:18:00,
2013-05-30 12:22:00,87.1,51.0,0.00,East,96,6.3,12.3,29,0.00,,SKC,0.39,VWS V14.00,2013-05-30 16:22:00,
2013-05-30 12:23:00,85.1,49.3,0.00,South,189,3.6,15.0,29,0.00,,SKC,0.00,VWS V14.00,2013-05-30 16:23:00,
2013-05-30 12:24:00,86.0,50.1,0.00,SE,137,13.2,13.2,29,0.00,,SKC,0.00,VWS V14.00,2013-05-30 16:24:00,
2013-05-30 12:25:00,86.7,50.7,0.00,SE,134,2.7,13.2,29,0.00,,SKC,0.00,VWS V14.00,2013-05-30 16:25:00,
2013-05-30 12:26:00,87.1,51.0,0.00,South,169,6.3,13.2,29,0.00,,SKC,0.00,VWS V14.00,2013-05-30 16:26:00,
2013-05-30 12:27:00,87.1,51.0,0.00,SSE,159,0.0,13.2,29,0.00,,SKC,0.00,VWS V14.00,2013-05-30 16:27:00,
2013-05-30 12:28:00,84.7,49.0,0.00,SW,221,5.4,15.0,29,0.00,,SKC,0.00,VWS V14.00,2013-05-30 16:28:00,
2013-05-30 12:31:00,87.4,51.3,0.00,SSE,152,8.1,13.2,29,0.00,,SKC,0.00,VWS V14.00,2013-05-30 16:31:00,
2013-05-30 12:32:00,87.4,51.3,0.00,ESE,113,8.3,13.2,29,0.00,,SKC,0.00,VWS V14.00,2013-05-30 16:32:00,
2013-05-30 12:33:00,85.3,49.5,0.00,SE,128,11.9,15.0,29,0.00,,SKC,0.00,VWS V14.00,2013-05-30 16:33:00,
2013-05-30 12:34:00,86.9,50.8,0.00,SE,130,8.1,13.2,29,0.00,,SKC,0.00,VWS V14.00,2013-05-30 16:34:00,
2013-05-30 12:35:00,86.9,50.8,0.00,SE,139,4.0,13.2,29,0.00,,SKC,0.00,VWS V14.00,2013-05-30 16:35:00,
2013-05-30 12:36:00,87.1,51.0,0.00,SE,129,3.1,13.2,29,0.00,,SKC,0.00,VWS V14.00,2013-05-30 16:36:00,
2013-05-30 12:37:00,86.5,50.5,0.00,SE,143,10.5,13.2,29,0.00,,SKC,0.00,VWS V14.00,2013-05-30 16:37:00,
2013-05-30 12:38:00,86.4,50.4,0.00,SSW,198,4.0,15.0,29,0.00,,SKC,0.00,VWS V14.00,2013-05-30 16:38:00,
2013-05-30 12:43:00,86.7,50.7,0.00,SE,137,2.7,15.0,29,0.00,,SKC,0.00,VWS V14.00,2013-05-30 16:43:00,
2013-05-30 12:45:00,86.7,50.7,0.00,ESE,121,6.3,13.2,29,0.00,,SKC,0.00,VWS V14.00,2013-05-30 16:45:00,
2013-05-30 12:46:00,86.7,50.7,0.00,South,169,3.1,13.2,29,0.00,,SKC,0.00,VWS V14.00,2013-05-30 16:46:00,
2013-05-30 12:47:00,87.4,51.3,0.00,SSE,162,2.7,13.2,29,0.00,,SKC,0.00,VWS V14.00,2013-05-30 16:47:00,
2013-05-30 12:48:00,87.1,51.0,0.00,SW,218,4.9,15.0,29,0.00,,SKC,0.00,VWS V14.00,2013-05-30 16:48:00,
2013-05-30 12:49:00,87.8,50.7,0.00,South,190,5.4,13.2,28,0.00,,SKC,0.00,VWS V14.00,2013-05-30 16:49:00,
2013-05-30 12:50:00,88.2,51.0,0.00,SSE,167,2.7,13.2,28,0.00,,SKC,0.00,VWS V14.00,2013-05-30 16:50:00,
2013-05-30 12:51:00,88.2,51.0,0.00,SE,127,5.4,13.2,28,0.00,,SKC,0.00,VWS V14.00,2013-05-30 16:51:00,
2013-05-30 12:52:00,88.3,51.1,0.00,SSE,147,5.4,13.2,28,0.00,,SKC,0.00,VWS V14.00,2013-05-30 16:52:00,
2013-05-30 12:53:00,86.5,50.5,0.00,SE,140,5.8,15.0,29,0.00,,SKC,0.00,VWS V14.00,2013-05-30 16:53:00,
2013-05-30 12:54:00,88.7,51.4,0.00,SE,130,10.1,13.2,28,0.00,,SKC,0.00,VWS V14.00,2013-05-30 16:54:00,
2013-05-30 12:58:00,88.2,51.0,0.00,South,177,6.7,15.0,28,0.00,,SKC,0.00,VWS V14.00,2013-05-30 16:58:00,
2013-05-30 13:03:00,88.2,51.0,0.00,SSE,164,2.2,8.1,28,0.00,,SKC,0.00,VWS V14.00,2013-05-30 17:03:00,
2013-05-30 13:08:00,86.0,50.1,0.00,SSW,203,5.8,12.3,29,0.00,,SKC,0.00,VWS V14.00,2013-05-30 17:08:00,
2013-05-30 13:12:00,89.6,52.2,0.00,SSE,151,11.0,14.5,28,0.00,,SKC,0.00,VWS V14.00,2013-05-30 17:12:00,
2013-05-30 13:13:00,87.1,51.0,0.00,WSW,238,2.7,12.3,29,0.00,,SKC,0.00,VWS V14.00,2013-05-30 17:13:00,
2013-05-30 13:14:00,89.4,52.1,0.00,ESE,114,4.9,14.5,28,0.00,,SKC,0.00,VWS V14.00,2013-05-30 17:14:00,
2013-05-30 13:15:00,89.4,52.1,0.00,South,185,5.4,14.5,28,0.00,,SKC,0.00,VWS V14.00,2013-05-30 17:15:00,
2013-05-30 13:16:00,89.2,51.9,0.00,SSW,205,3.6,14.5,28,0.00,,SKC,0.00,VWS V14.00,2013-05-30 17:16:00,
2013-05-30 13:18:00,86.7,50.7,0.00,SSE,162,4.9,12.3,29,0.00,,SKC,0.00,VWS V14.00,2013-05-30 17:18:00,
2013-05-30 13:19:00,89.2,51.9,0.00,SE,145,3.1,14.5,28,0.00,,SKC,0.00,VWS V14.00,2013-05-30 17:19:00,
2013-05-30 13:20:00,87.8,50.7,0.00,ESE,118,10.1,14.5,28,0.00,,SKC,0.00,VWS V14.00,2013-05-30 17:20:00,
2013-05-30 13:21:00,87.8,50.7,0.00,South,176,5.4,14.5,28,0.00,,SKC,0.00,VWS V14.00,2013-05-30 17:21:00,
2013-05-30 13:23:00,86.2,50.2,0.00,SSE,162,5.8,12.3,29,0.00,,SKC,0.00,VWS V14.00,2013-05-30 17:23:00,
2013-05-30 13:28:00,86.9,50.8,0.00,WNW,283,4.9,12.3,29,0.00,,SKC,0.00,VWS V14.00,2013-05-30 17:28:00,
2013-05-30 13:33:00,86.7,50.7,0.00,SSE,156,2.2,13.2,29,0.00,,SKC,0.00,VWS V14.00,2013-05-30 17:33:00,
2013-05-30 13:34:00,88.0,50.8,0.00,SE,143,7.6,14.5,28,0.00,,SKC,0.00,VWS V14.00,2013-05-30 17:34:00,
2013-05-30 13:35:00,88.0,50.8,0.00,SE,146,10.1,14.5,28,0.00,,SKC,0.00,VWS V14.00,2013-05-30 17:35:00,
2013-05-30 13:36:00,87.4,51.3,0.00,ESE,109,5.4,14.5,29,0.00,,SKC,0.00,VWS V14.00,2013-05-30 17:36:00,
2013-05-30 13:37:00,87.3,51.2,0.00,SE,142,8.7,14.5,29,0.00,,SKC,0.00,VWS V14.00,2013-05-30 17:37:00,
2013-05-30 13:38:00,88.2,51.0,0.00,SE,136,5.8,14.5,28,0.00,,SKC,0.00,VWS V14.00,2013-05-30 17:38:00,
2013-05-30 13:41:00,86.9,50.8,0.00,SE,138,8.3,13.2,29,0.00,,SKC,0.00,VWS V14.00,2013-05-30 17:41:00,
2013-05-30 13:46:00,86.9,50.8,0.00,South,180,5.8,13.2,29,0.00,,SKC,0.00,VWS V14.00,2013-05-30 17:46:00,
2013-05-30 13:51:00,86.0,50.1,0.00,SSE,162,7.6,13.2,29,0.00,,SKC,0.00,VWS V14.00,2013-05-30 17:51:00,
2013-05-30 13:56:00,87.8,50.7,0.00,ESE,122,4.0,13.2,28,0.00,,SKC,0.00,VWS V14.00,2013-05-30 17:56:00,
2013-05-30 14:01:00,88.7,51.4,0.00,SSE,155,3.6,13.2,28,0.00,,SKC,0.00,VWS V14.00,2013-05-30 18:01:00,
2013-05-30 14:06:00,89.6,52.2,0.00,South,175,5.4,14.5,28,0.00,,SKC,0.00,VWS V14.00,2013-05-30 18:06:00,
2013-05-30 14:11:00,89.8,52.4,0.00,South,172,3.6,14.5,28,0.00,,SKC,0.00,VWS V14.00,2013-05-30 18:11:00,
2013-05-30 14:16:00,88.9,51.6,0.00,SE,137,3.1,14.5,28,0.00,,SKC,0.00,VWS V14.00,2013-05-30 18:16:00,
2013-05-30 14:21:00,89.4,52.1,0.00,SE,144,4.0,14.5,28,0.00,,SKC,0.00,VWS V14.00,2013-05-30 18:21:00,
2013-05-30 14:22:00,94.6,55.5,0.00,SE,141,3.6,11.0,27,0.00,,SKC,0.39,VWS V14.00,2013-05-30 18:22:00,
2013-05-30 14:23:00,93.9,54.9,0.00,SSE,154,4.5,11.0,27,0.00,,SKC,0.00,VWS V14.00,2013-05-30 18:23:00,
2013-05-30 14:24:00,92.7,53.8,0.00,SSE,151,8.7,15.0,27,0.00,,SKC,0.00,VWS V14.00,2013-05-30 18:24:00,
2013-05-30 14:25:00,91.0,53.4,0.00,SSE,147,8.3,15.0,28,0.00,,SKC,0.00,VWS V14.00,2013-05-30 18:25:00,
2013-05-30 14:26:00,89.2,51.9,0.00,SSE,162,4.0,14.5,28,0.00,,SKC,0.00,VWS V14.00,2013-05-30 18:26:00,
2013-05-30 14:27:00,91.9,53.2,0.00,SSW,213,3.6,15.0,27,0.00,,SKC,0.00,VWS V14.00,2013-05-30 18:27:00,
2013-05-30 14:31:00,89.8,52.4,0.00,WSW,237,3.1,14.5,28,0.00,,SKC,0.00,VWS V14.00,2013-05-30 18:31:00,
2013-05-30 14:32:00,91.9,53.2,0.00,SSE,156,6.3,15.0,27,0.00,,SKC,0.00,VWS V14.00,2013-05-30 18:32:00,
2013-05-30 14:33:00,92.1,53.4,0.00,SE,130,4.0,15.0,27,0.00,,SKC,0.00,VWS V14.00,2013-05-30 18:33:00,
2013-05-30 14:34:00,93.7,54.7,0.00,SSE,154,3.6,15.0,27,0.00,,SKC,0.00,VWS V14.00,2013-05-30 18:34:00,
2013-05-30 14:35:00,94.1,55.0,0.00,ENE,68,4.0,15.0,27,0.00,,SKC,0.00,VWS V14.00,2013-05-30 18:35:00,
2013-05-30 14:36:00,91.6,52.9,0.00,SE,140,8.3,14.5,27,0.00,,SKC,0.00,VWS V14.00,2013-05-30 18:36:00,
2013-05-30 14:37:00,93.9,54.9,0.00,SSW,199,3.6,15.0,27,0.00,,SKC,0.00,VWS V14.00,2013-05-30 18:37:00,
2013-05-30 14:38:00,94.3,55.2,0.00,SSW,199,2.2,15.0,27,0.00,,SKC,0.00,VWS V14.00,2013-05-30 18:38:00,
2013-05-30 14:41:00,88.0,50.8,0.00,SE,143,7.6,14.5,28,0.00,,SKC,0.00,VWS V14.00,2013-05-30 18:41:00,
2013-05-30 14:46:00,87.6,51.5,0.00,SE,137,4.0,14.5,29,0.00,,SKC,0.00,VWS V14.00,2013-05-30 18:46:00,
2013-05-30 14:51:00,88.7,51.4,0.00,SE,132,4.0,14.5,28,0.00,,SKC,0.00,VWS V14.00,2013-05-30 18:51:00,
2013-05-30 14:56:00,88.2,51.0,0.00,South,182,3.1,14.5,28,0.00,,SKC,0.00,VWS V14.00,2013-05-30 18:56:00,
2013-05-30 15:01:00,88.7,51.4,0.00,East,83,5.8,5.8,28,0.00,,SKC,0.00,VWS V14.00,2013-05-30 19:01:00,
2013-05-30 15:06:00,90.1,52.7,0.00,South,172,11.0,11.0,28,0.00,,SKC,0.00,VWS V14.00,2013-05-30 19:06:00,
2013-05-30 15:11:00,90.1,52.7,0.00,ESE,116,4.0,11.0,28,0.00,,SKC,0.00,VWS V14.00,2013-05-30 19:11:00,
2013-05-30 15:16:00,90.9,53.3,0.00,SSE,164,3.1,11.0,28,0.00,,SKC,0.00,VWS V14.00,2013-05-30 19:16:00,
2013-05-30 15:21:00,93.4,54.4,0.00,SE,134,3.1,11.0,27,0.00,,SKC,0.00,VWS V14.00,2013-05-30 19:21:00,
2013-05-30 15:26:00,94.3,55.2,0.00,SW,216,3.1,11.0,27,0.00,,SKC,0.00,VWS V14.00,2013-05-30 19:26:00,
2013-05-30 15:33:00,91.0,53.4,0.00,SSE,147,8.3,15.0,28,0.00,,SKC,0.00,VWS V14.00,2013-05-30 19:33:00,
2013-05-30 15:38:00,91.8,53.1,0.00,SSW,207,3.6,15.0,27,0.00,,SKC,0.00,VWS V14.00,2013-05-30 19:38:00,
2013-05-30 15:43:00,94.5,55.3,0.00,SSW,211,5.4,15.0,27,0.00,,SKC,0.00,VWS V14.00,2013-05-30 19:43:00,
2013-05-30 15:48:00,93.7,54.7,0.00,SW,232,2.2,15.0,27,0.00,,SKC,0.00,VWS V14.00,2013-05-30 19:48:00,
2013-05-30 15:53:00,93.4,54.4,0.00,ESE,112,3.1,15.0,27,0.00,,SKC,0.00,VWS V14.00,2013-05-30 19:53:00,
2013-05-30 15:58:00,88.2,51.0,0.00,SSW,195,11.0,15.0,28,0.00,,SKC,0.00,VWS V14.00,2013-05-30 19:58:00,
2013-05-30 16:03:00,86.2,50.2,0.00,SSE,163,3.1,15.0,29,0.00,,SKC,0.00,VWS V14.00,2013-05-30 20:03:00,
2013-05-30 16:08:00,85.5,49.6,0.00,SW,215,2.2,15.0,29,0.00,,SKC,0.00,VWS V14.00,2013-05-30 20:08:00,
2013-05-30 16:13:00,84.6,48.8,0.00,SE,143,7.6,15.0,29,0.00,,SKC,0.00,VWS V14.00,2013-05-30 20:13:00,
2013-05-30 16:18:00,81.7,47.3,0.00,SSE,160,8.7,15.0,30,0.00,,SKC,0.00,VWS V14.00,2013-05-30 20:18:00,
2013-05-30 16:22:00,82.2,47.7,0.00,SSE,147,4.0,13.6,30,0.00,,SKC,0.39,VWS V14.00,2013-05-30 20:22:00,
2013-05-30 16:23:00,75.9,43.1,0.00,SSW,211,2.7,15.0,31,0.04,,SKC,0.04,VWS V14.00,2013-05-30 20:23:00,
2013-05-30 16:24:00,82.4,47.0,0.00,SE,137,6.3,13.6,29,0.00,,SKC,0.08,VWS V14.00,2013-05-30 20:24:00,
2013-05-30 16:25:00,82.6,47.1,0.00,SSE,166,3.1,13.6,29,0.00,,SKC,0.08,VWS V14.00,2013-05-30 20:25:00,
2013-05-30 16:26:00,82.8,47.3,0.00,ESE,113,3.6,13.6,29,0.00,,SKC,0.08,VWS V14.00,2013-05-30 20:26:00,
2013-05-30 16:27:00,82.6,47.1,0.00,SE,138,8.3,13.6,29,0.00,,SKC,0.08,VWS V14.00,2013-05-30 20:27:00,
2013-05-30 16:28:00,73.8,41.3,0.00,North,357,0.0,15.0,31,0.08,,SKC,0.08,VWS V14.00,2013-05-30 20:28:00,
2013-05-30 16:31:00,82.6,47.1,0.00,SSE,162,4.0,13.6,29,0.00,,SKC,0.08,VWS V14.00,2013-05-30 20:31:00,
2013-05-30 16:32:00,82.2,47.7,0.00,SE,132,3.6,13.6,30,0.00,,SKC,0.08,VWS V14.00,2013-05-30 20:32:00,
2013-05-30 16:33:00,76.5,43.6,0.00,NE,39,0.0,15.0,31,0.08,,SKC,0.08,VWS V14.00,2013-05-30 20:33:00,
2013-05-30 16:34:00,82.8,47.3,0.00,SE,145,6.3,13.6,29,0.00,,SKC,0.08,VWS V14.00,2013-05-30 20:34:00,
2013-05-30 16:35:00,82.6,47.1,0.00,SSE,147,3.1,13.6,29,0.00,,SKC,0.08,VWS V14.00,2013-05-30 20:35:00,
2013-05-30 16:38:00,77.4,44.4,0.00,SE,126,3.6,15.0,31,0.08,,SKC,0.08,VWS V14.00,2013-05-30 20:38:00,
2013-05-30 16:43:00,78.8,44.8,0.00,ESE,115,5.8,15.0,30,0.08,,SKC,0.08,VWS V14.00,2013-05-30 20:43:00,
2013-05-30 16:48:00,78.4,45.3,0.00,ESE,119,2.7,15.0,31,0.08,,SKC,0.08,VWS V14.00,2013-05-30 20:48:00,
2013-05-30 16:52:00,81.9,47.4,0.00,SE,127,5.8,14.5,30,0.00,,SKC,0.08,VWS V14.00,2013-05-30 20:52:00,
2013-05-30 16:53:00,79.2,45.1,0.00,SE,143,2.7,15.0,30,0.08,,SKC,0.08,VWS V14.00,2013-05-30 20:53:00,
2013-05-30 16:54:00,81.9,47.4,0.00,SE,127,5.4,14.5,30,0.00,,SKC,0.08,VWS V14.00,2013-05-30 20:54:00,
2013-05-30 16:55:00,81.7,47.3,0.00,SSE,156,4.0,14.5,30,0.00,,SKC,0.08,VWS V14.00,2013-05-30 20:55:00,
2013-05-30 16:58:00,80.6,46.3,0.00,SE,140,3.6,15.0,30,0.08,,SKC,0.08,VWS V14.00,2013-05-30 20:58:00,
2013-05-30 17:03:00,82.8,47.3,0.00,SSE,149,6.3,13.6,29,0.00,,SKC,0.08,VWS V14.00,2013-05-30 21:03:00,
2013-05-30 17:08:00,83.1,47.6,0.00,SE,139,6.3,13.6,29,0.00,,SKC,0.08,VWS V14.00,2013-05-30 21:08:00,
2013-05-30 17:10:00,82.0,47.6,0.00,SE,137,5.4,14.5,30,0.00,,SKC,0.08,VWS V14.00,2013-05-30 21:10:00,
2013-05-30 17:11:00,82.0,47.6,0.00,SSE,162,3.6,14.5,30,0.00,,SKC,0.08,VWS V14.00,2013-05-30 21:11:00,
2013-05-30 17:12:00,82.0,47.6,0.00,SE,144,3.1,14.5,30,0.00,,SKC,0.08,VWS V14.00,2013-05-30 21:12:00,
2013-05-30 17:13:00,82.0,47.6,0.00,South,178,3.1,13.6,30,0.00,,SKC,0.08,VWS V14.00,2013-05-30 21:13:00,
2013-05-30 17:14:00,81.7,47.3,0.00,ESE,122,5.4,14.5,30,0.00,,SKC,0.08,VWS V14.00,2013-05-30 21:14:00,
2013-05-30 17:18:00,82.2,47.7,0.00,SSE,163,6.3,13.6,30,0.00,,SKC,0.08,VWS V14.00,2013-05-30 21:18:00,
2013-05-30 17:23:00,81.7,47.3,0.00,SE,137,7.6,13.6,30,0.00,,SKC,0.08,VWS V14.00,2013-05-30 21:23:00,
2013-05-30 17:26:00,73.6,41.1,0.00,WSW,241,4.0,14.5,31,0.00,,SKC,0.08,VWS V14.00,2013-05-30 21:26:00,
2013-05-30 17:27:00,73.4,41.0,0.00,SSW,210,6.3,14.5,31,0.00,,SKC,0.08,VWS V14.00,2013-05-30 21:27:00,
2013-05-30 17:28:00,81.9,47.4,0.00,SE,141,5.8,13.6,30,0.00,,SKC,0.08,VWS V14.00,2013-05-30 21:28:00,
2013-05-30 17:29:00,71.8,40.4,0.00,WSW,257,4.0,14.5,32,0.00,,SKC,0.08,VWS V14.00,2013-05-30 21:29:00,
2013-05-30 17:30:00,71.4,40.0,0.00,SW,236,3.6,14.5,32,0.00,,SKC,0.08,VWS V14.00,2013-05-30 21:30:00,
2013-05-30 17:31:00,71.1,39.7,0.00,SW,235,2.2,14.5,32,0.00,,SKC,0.08,VWS V14.00,2013-05-30 21:31:00,
2013-05-30 17:33:00,82.6,47.1,0.00,SSE,150,5.4,13.6,29,0.00,,SKC,0.08,VWS V14.00,2013-05-30 21:33:00,
2013-05-30 17:38:00,82.6,47.1,0.00,SSE,150,5.8,13.6,29,0.00,,SKC,0.08,VWS V14.00,2013-05-30 21:38:00,
2013-05-30 17:43:00,82.8,47.3,0.00,ESE,105,8.1,13.6,29,0.00,,SKC,0.08,VWS V14.00,2013-05-30 21:43:00,
2013-05-30 17:48:00,82.4,47.0,0.00,SSE,165,4.9,14.5,29,0.00,,SKC,0.08,VWS V14.00,2013-05-30 21:48:00,
2013-05-30 17:53:00,82.4,47.0,0.00,SE,143,3.1,14.5,29,0.00,,SKC,0.08,VWS V14.00,2013-05-30 21:53:00,
2013-05-30 17:58:00,81.9,47.4,0.00,SE,145,2.7,14.5,30,0.00,,SKC,0.08,VWS V14.00,2013-05-30 21:58:00,
2013-05-30 18:03:00,81.5,47.1,0.00,SE,130,5.4,14.5,30,0.00,,SKC,0.08,VWS V14.00,2013-05-30 22:03:00,
2013-05-30 18:08:00,81.5,47.1,0.00,SSE,156,2.7,14.5,30,0.00,,SKC,0.08,VWS V14.00,2013-05-30 22:08:00,
2013-05-30 18:13:00,81.9,47.4,0.00,SE,125,5.4,14.5,30,0.00,,SKC,0.08,VWS V14.00,2013-05-30 22:13:00,
2013-05-30 18:18:00,82.0,47.6,0.00,SSE,162,3.6,14.5,30,0.00,,SKC,0.08,VWS V14.00,2013-05-30 22:18:00,
2013-05-30 18:22:00,73.9,42.2,0.00,SE,127,0.0,4.0,32,0.00,,SKC,0.08,VWS V14.00,2013-05-30 22:22:00,
2013-05-30 18:23:00,81.5,47.1,0.00,SSE,160,6.3,14.5,30,0.00,,SKC,0.08,VWS V14.00,2013-05-30 22:23:00,
2013-05-30 18:24:00,74.1,42.4,0.00,SE,127,0.0,4.0,32,0.00,,SKC,0.08,VWS V14.00,2013-05-30 22:24:00,
2013-05-30 18:25:00,74.1,42.4,0.00,SE,127,0.0,4.0,32,0.00,,SKC,0.08,VWS V14.00,2013-05-30 22:25:00,
2013-05-30 18:26:00,74.3,42.6,0.00,SE,142,3.1,4.0,32,0.00,,SKC,0.08,VWS V14.00,2013-05-30 22:26:00,
2013-05-30 18:28:00,80.6,46.3,0.00,SW,230,2.7,14.5,30,0.00,,SKC,0.08,VWS V14.00,2013-05-30 22:28:00,
2013-05-30 18:33:00,74.5,41.9,0.00,WSW,241,4.0,14.5,31,0.00,,SKC,0.08,VWS V14.00,2013-05-30 22:33:00,
2013-05-30 18:38:00,71.2,39.9,0.00,SW,235,2.2,14.5,32,0.00,,SKC,0.08,VWS V14.00,2013-05-30 22:38:00,
2013-05-30 18:43:00,70.0,38.8,0.00,WNW,283,0.0,14.5,32,0.00,,SKC,0.08,VWS V14.00,2013-05-30 22:43:00,
2013-05-30 18:48:00,70.2,39.0,0.00,WNW,283,0.0,14.5,32,0.00,,SKC,0.08,VWS V14.00,2013-05-30 22:48:00,
2013-05-30 18:51:00,74.1,41.6,0.00,SE,142,0.0,4.0,31,0.00,,SKC,0.08,VWS V14.00,2013-05-30 22:51:00,
2013-05-30 18:52:00,74.3,41.7,0.00,SE,142,0.0,4.0,31,0.00,,SKC,0.08,VWS V14.00,2013-05-30 22:52:00,
2013-05-30 18:53:00,70.3,39.1,0.00,WNW,283,0.0,14.5,32,0.00,,SKC,0.08,VWS V14.00,2013-05-30 22:53:00,
2013-05-30 18:54:00,74.5,41.9,0.00,SE,142,0.0,4.0,31,0.00,,SKC,0.08,VWS V14.00,2013-05-30 22:54:00,
2013-05-30 18:55:00,74.7,42.0,0.00,SE,142,0.0,4.0,31,0.00,,SKC,0.08,VWS V14.00,2013-05-30 22:55:00,
2013-05-30 18:58:00,70.5,39.3,0.00,WNW,283,0.0,14.5,32,0.00,,SKC,0.08,VWS V14.00,2013-05-30 22:58:00,
2013-05-30 19:02:00,74.8,42.2,0.00,SE,142,0.0,4.0,31,0.00,,SKC,0.08,VWS V14.00,2013-05-30 23:02:00,
2013-05-30 19:03:00,70.7,40.2,0.00,West,281,0.0,0.0,33,0.00,,SKC,0.08,VWS V14.00,2013-05-30 23:03:00,
2013-05-30 19:04:00,74.8,42.2,0.00,SE,142,0.0,4.0,31,0.00,,SKC,0.08,VWS V14.00,2013-05-30 23:04:00,
2013-05-30 19:05:00,74.7,42.0,0.00,SE,142,0.0,4.0,31,0.00,,SKC,0.08,VWS V14.00,2013-05-30 23:05:00,
2013-05-30 19:06:00,74.7,42.0,0.00,SE,142,3.6,4.0,31,0.00,,SKC,0.08,VWS V14.00,2013-05-30 23:06:00,
2013-05-30 19:07:00,74.7,42.0,0.00,SE,142,2.7,4.0,31,0.00,,SKC,0.08,VWS V14.00,2013-05-30 23:07:00,
2013-05-30 19:08:00,71.2,40.7,0.00,SSE,153,2.2,2.7,33,0.00,,SKC,0.08,VWS V14.00,2013-05-30 23:08:00,
2013-05-30 19:13:00,71.4,40.8,0.00,SSE,153,0.0,2.7,33,0.00,,SKC,0.08,VWS V14.00,2013-05-30 23:13:00,
2013-05-30 19:18:00,72.3,40.8,0.00,SE,131,2.2,3.1,32,0.00,,SKC,0.08,VWS V14.00,2013-05-30 23:18:00,
2013-05-30 19:23:00,73.0,41.5,0.00,SE,143,4.0,4.0,32,0.00,,SKC,0.08,VWS V14.00,2013-05-30 23:23:00,
2013-05-30 19:25:00,74.1,41.6,0.00,SE,142,0.0,4.0,31,0.00,,SKC,0.08,VWS V14.00,2013-05-30 23:25:00,
2013-05-30 19:26:00,74.1,41.6,0.00,SE,142,0.0,4.0,31,0.00,,SKC,0.08,VWS V14.00,2013-05-30 23:26:00,
2013-05-30 19:27:00,74.1,42.4,0.00,SE,142,0.0,4.0,32,0.00,,SKC,0.08,VWS V14.00,2013-05-30 23:27:00,
2013-05-30 19:28:00,73.6,41.9,0.00,SE,139,3.1,4.0,32,0.00,,SKC,0.08,VWS V14.00,2013-05-30 23:28:00,
2013-05-30 19:29:00,73.9,42.2,0.00,SE,142,0.0,4.0,32,0.00,,SKC,0.08,VWS V14.00,2013-05-30 23:29:00,
2013-05-30 19:30:00,73.9,42.2,0.00,SE,142,0.0,4.0,32,0.00,,SKC,0.08,VWS V14.00,2013-05-30 23:30:00,
2013-05-30 19:31:00,73.9,42.2,0.00,SE,142,0.0,4.0,32,0.00,,SKC,0.08,VWS V14.00,2013-05-30 23:31:00,
2013-05-30 19:32:00,73.8,42.1,0.00,SE,142,0.0,4.0,32,0.00,,SKC,0.08,VWS V14.00,2013-05-30 23:32:00,
2013-05-30 19:33:00,74.3,42.6,0.00,SE,142,3.1,4.0,32,0.00,,SKC,0.08,VWS V14.00,2013-05-30 23:33:00,
2013-05-30 19:38:00,74.5,42.7,0.00,SE,142,0.0,4.0,32,0.00,,SKC,0.08,VWS V14.00,2013-05-30 23:38:00,
2013-05-30 19:43:00,74.7,42.9,0.00,SE,142,0.0,4.0,32,0.00,,SKC,0.08,VWS V14.00,2013-05-30 23:43:00,
2013-05-30 19:48:00,74.7,42.9,0.00,SE,142,0.0,4.0,32,0.00,,SKC,0.08,VWS V14.00,2013-05-30 23:48:00,
2013-05-30 19:53:00,74.7,42.9,0.00,SE,142,0.0,4.0,32,0.00,,SKC,0.08,VWS V14.00,2013-05-30 23:53:00,
2013-05-30 19:58:00,74.7,42.9,0.00,SE,142,0.0,4.0,32,0.00,,SKC,0.08,VWS V14.00,2013-05-30 23:58:00,
2013-05-30 20:03:00,74.7,42.0,0.00,SE,142,0.0,4.0,31,0.00,,SKC,0.08,VWS V14.00,2013-05-31 00:03:00,
2013-05-30 20:08:00,74.7,42.0,0.00,SE,142,0.0,4.0,31,0.00,,SKC,0.08,VWS V14.00,2013-05-31 00:08:00,
2013-05-30 20:13:00,74.7,42.0,0.00,SE,142,3.1,4.0,31,0.00,,SKC,0.08,VWS V14.00,2013-05-31 00:13:00,
2013-05-30 20:18:00,74.7,42.0,0.00,SE,142,0.0,4.0,31,0.00,,SKC,0.08,VWS V14.00,2013-05-31 00:18:00,
2013-05-30 20:22:00,72.1,40.7,0.00,SE,142,2.2,3.6,32,0.00,,SKC,0.39,VWS V14.00,2013-05-31 00:22:00,
2013-05-30 20:23:00,74.5,41.9,0.00,SE,142,0.0,4.0,31,0.00,,SKC,0.08,VWS V14.00,2013-05-31 00:23:00,
2013-05-30 20:24:00,72.1,40.7,0.00,ESE,117,0.0,3.6,32,0.00,,SKC,0.08,VWS V14.00,2013-05-31 00:24:00,
2013-05-30 20:25:00,72.3,40.8,0.00,ESE,117,0.0,3.6,32,0.00,,SKC,0.08,VWS V14.00,2013-05-31 00:25:00,
2013-05-30 20:26:00,72.3,40.8,0.00,ESE,117,0.0,3.6,32,0.00,,SKC,0.08,VWS V14.00,2013-05-31 00:26:00,
2013-05-30 20:28:00,74.3,41.7,0.00,SE,142,0.0,4.0,31,0.00,,SKC,0.08,VWS V14.00,2013-05-31 00:28:00,
2013-05-30 20:31:00,72.1,40.7,0.00,ESE,117,0.0,3.6,32,0.00,,SKC,0.08,VWS V14.00,2013-05-31 00:31:00,
2013-05-30 20:32:00,72.1,40.7,0.00,ESE,117,0.0,3.6,32,0.00,,SKC,0.08,VWS V14.00,2013-05-31 00:32:00,
2013-05-30 20:33:00,74.1,41.6,0.00,SE,142,0.0,4.0,31,0.00,,SKC,0.08,VWS V14.00,2013-05-31 00:33:00,
2013-05-30 20:34:00,72.1,40.7,0.00,ESE,117,0.0,3.6,32,0.00,,SKC,0.08,VWS V14.00,2013-05-31 00:34:00,
2013-05-30 20:35:00,72.1,40.7,0.00,ESE,118,0.0,3.6,32,0.00,,SKC,0.08,VWS V14.00,2013-05-31 00:35:00,
2013-05-30 20:36:00,72.1,40.7,0.00,SE,137,2.7,3.6,32,0.00,,SKC,0.08,VWS V14.00,2013-05-31 00:36:00,
2013-05-30 20:38:00,73.9,42.2,0.00,SE,142,0.0,4.0,32,0.00,,SKC,0.08,VWS V14.00,2013-05-31 00:38:00,
2013-05-30 20:43:00,73.6,41.9,0.00,SE,142,0.0,4.0,32,0.00,,SKC,0.08,VWS V14.00,2013-05-31 00:43:00,
2013-05-30 20:48:00,73.2,41.6,0.00,SE,142,0.0,4.0,32,0.00,,SKC,0.08,VWS V14.00,2013-05-31 00:48:00,
2013-05-30 20:53:00,73.0,41.5,0.00,SE,142,0.0,4.0,32,0.00,,SKC,0.08,VWS V14.00,2013-05-31 00:53:00,
2013-05-30 20:58:00,72.7,41.2,0.00,SE,142,0.0,4.0,32,0.00,,SKC,0.08,VWS V14.00,2013-05-31 00:58:00,
2013-05-30 21:03:00,72.3,40.8,0.00,SE,142,0.0,0.0,32,0.00,,SKC,0.08,VWS V14.00,2013-05-31 01:03:00,
2013-05-30 21:08:00,72.1,40.7,0.00,SE,142,0.0,0.0,32,0.00,,SKC,0.08,VWS V14.00,2013-05-31 01:08:00,
2013-05-30 21:13:00,71.8,40.4,0.00,SE,142,0.0,0.0,32,0.00,,SKC,0.08,VWS V14.00,2013-05-31 01:13:00,
2013-05-30 21:18:00,71.8,40.4,0.00,SE,142,0.0,0.0,32,0.00,,SKC,0.08,VWS V14.00,2013-05-31 01:18:00,
2013-05-30 21:23:00,72.0,40.5,0.00,SE,142,2.2,3.1,32,0.00,,SKC,0.08,VWS V14.00,2013-05-31 01:23:00,
2013-05-30 21:28:00,72.1,40.7,0.00,SE,142,2.7,3.6,32,0.00,,SKC,0.08,VWS V14.00,2013-05-31 01:28:00,
2013-05-30 21:33:00,72.3,40.8,0.00,ESE,117,0.0,3.6,32,0.00,,SKC,0.08,VWS V14.00,2013-05-31 01:33:00,
2013-05-30 21:41:00,72.1,40.7,0.00,ESE,117,0.0,3.6,32,0.00,,SKC,0.08,VWS V14.00,2013-05-31 01:41:00,
2013-05-30 21:46:00,72.1,40.7,0.00,SE,137,0.0,3.6,32,0.00,,SKC,0.08,VWS V14.00,2013-05-31 01:46:00,
2013-05-30 21:51:00,72.3,40.8,0.00,SE,128,3.1,3.6,32,0.00,,SKC,0.08,VWS V14.00,2013-05-31 01:51:00,
2013-05-30 21:56:00,72.5,41.0,0.00,SE,136,3.6,4.9,32,0.00,,SKC,0.08,VWS V14.00,2013-05-31 01:56:00,
2013-05-30 22:01:00,72.9,41.3,0.00,SE,136,5.4,5.4,32,0.00,,SKC,0.08,VWS V14.00,2013-05-31 02:01:00,
2013-05-30 22:06:00,73.2,41.6,0.00,SSE,151,4.9,5.4,32,0.00,,SKC,0.08,VWS V14.00,2013-05-31 02:06:00,
2013-05-30 22:11:00,73.4,41.0,0.00,SE,137,3.1,6.7,31,0.00,,SKC,0.08,VWS V14.00,2013-05-31 02:11:00,
2013-05-30 22:16:00,73.4,41.0,0.00,SE,135,2.7,6.7,31,0.00,,SKC,0.08,VWS V14.00,2013-05-31 02:16:00,
2013-05-30 22:21:00,73.4,41.0,0.00,SE,131,4.0,6.7,31,0.00,,SKC,0.08,VWS V14.00,2013-05-31 02:21:00,
2013-05-30 22:22:00,73.0,41.5,0.00,SSE,158,0.0,4.9,32,0.00,,SKC,0.39,VWS V14.00,2013-05-31 02:22:00,
2013-05-30 22:23:00,73.0,41.5,0.00,SSW,202,2.7,4.9,32,0.00,,SKC,0.08,VWS V14.00,2013-05-31 02:23:00,
2013-05-30 22:24:00,73.0,41.5,0.00,SSW,202,0.0,4.9,32,0.00,,SKC,0.08,VWS V14.00,2013-05-31 02:24:00,
2013-05-30 22:25:00,73.0,41.5,0.00,SSW,202,0.0,4.9,32,0.00,,SKC,0.08,VWS V14.00,2013-05-31 02:25:00,
2013-05-30 22:26:00,73.4,41.0,0.00,SE,129,3.6,6.7,31,0.00,,SKC,0.08,VWS V14.00,2013-05-31 02:26:00,
2013-05-30 22:31:00,73.2,41.6,0.00,SE,141,4.0,6.7,32,0.00,,SKC,0.08,VWS V14.00,2013-05-31 02:31:00,
2013-05-30 22:36:00,73.4,41.0,0.00,SE,144,2.7,6.7,31,0.00,,SKC,0.08,VWS V14.00,2013-05-31 02:36:00,
2013-05-30 22:41:00,73.6,41.1,0.00,SE,140,2.7,6.7,31,0.00,,SKC,0.08,VWS V14.00,2013-05-31 02:41:00,
2013-05-30 22:46:00,73.6,41.1,0.00,SE,140,3.6,6.7,31,0.00,,SKC,0.08,VWS V14.00,2013-05-31 02:46:00,
2013-05-30 22:51:00,73.6,41.1,0.00,South,170,2.2,6.7,31,0.00,,SKC,0.08,VWS V14.00,2013-05-31 02:51:00,
2013-05-30 22:52:00,72.9,41.3,0.00,SE,125,2.7,5.8,32,0.00,,SKC,0.08,VWS V14.00,2013-05-31 02:52:00,
2013-05-30 22:53:00,72.7,41.2,0.00,SE,127,2.7,5.8,32,0.00,,SKC,0.08,VWS V14.00,2013-05-31 02:53:00,
2013-05-30 22:54:00,72.9,41.3,0.00,SSW,197,3.1,5.8,32,0.00,,SKC,0.08,VWS V14.00,2013-05-31 02:54:00,
2013-05-30 22:55:00,72.9,41.3,0.00,SE,135,5.4,5.8,32,0.00,,SKC,0.08,VWS V14.00,2013-05-31 02:55:00,
2013-05-30 22:56:00,73.6,41.1,0.00,SE,143,3.1,6.7,31,0.00,,SKC,0.08,VWS V14.00,2013-05-31 02:56:00,
2013-05-30 22:57:00,72.9,41.3,0.00,SE,130,4.9,5.8,32,0.00,,SKC,0.08,VWS V14.00,2013-05-31 02:57:00,
2013-05-30 23:01:00,73.6,41.1,0.00,SE,134,2.7,4.9,31,0.00,,SKC,0.08,VWS V14.00,2013-05-31 03:01:00,
2013-05-30 23:06:00,73.4,41.0,0.00,ESE,119,2.7,4.9,31,0.00,,SKC,0.08,VWS V14.00,2013-05-31 03:06:00,
2013-05-30 23:11:00,73.4,41.0,0.00,SSE,147,0.0,4.9,31,0.00,,SKC,0.08,VWS V14.00,2013-05-31 03:11:00,
2013-05-30 23:16:00,73.4,41.0,0.00,East,84,0.0,4.9,31,0.00,,SKC,0.08,VWS V14.00,2013-05-31 03:16:00,
2013-05-30 23:21:00,73.4,41.0,0.00,SE,146,2.7,4.9,31,0.00,,SKC,0.08,VWS V14.00,2013-05-31 03:21:00,
2013-05-30 23:26:00,73.2,41.6,0.00,SW,236,0.0,4.9,32,0.00,,SKC,0.08,VWS V14.00,2013-05-31 03:26:00,
2013-05-30 23:31:00,72.7,41.2,0.00,SE,134,4.0,8.1,32,0.00,,SKC,0.08,VWS V14.00,2013-05-31 03:31:00,
2013-05-30 23:32:00,72.9,41.3,0.00,SE,134,2.7,8.1,32,0.00,,SKC,0.08,VWS V14.00,2013-05-31 03:32:00,
2013-05-30 23:33:00,73.0,41.5,0.00,SSW,202,0.0,4.9,32,0.00,,SKC,0.08,VWS V14.00,2013-05-31 03:33:00,
2013-05-30 23:34:00,72.9,41.3,0.00,SSE,151,2.2,8.1,32,0.00,,SKC,0.08,VWS V14.00,2013-05-31 03:34:00,
2013-05-30 23:35:00,72.9,41.3,0.00,SE,141,5.4,8.1,32,0.00,,SKC,0.08,VWS V14.00,2013-05-31 03:35:00,
2013-05-30 23:38:00,73.2,41.6,0.00,SSW,202,0.0,4.9,32,0.00,,SKC,0.08,VWS V14.00,2013-05-31 03:38:00,
2013-05-30 23:43:00,72.9,41.3,0.00,SE,133,2.2,5.8,32,0.00,,SKC,0.08,VWS V14.00,2013-05-31 03:43:00,
2013-05-30 23:48:00,72.9,41.3,0.00,SW,215,2.2,5.8,32,0.00,,SKC,0.08,VWS V14.00,2013-05-31 03:48:00,
2013-05-30 23:53:00,72.9,41.3,0.00,SE,139,2.7,5.8,32,0.00,,SKC,0.08,VWS V14.00,2013-05-31 03:53:00,
2013-05-30 23:58:00,72.9,41.3,0.00,SSE,150,5.4,5.8,32,0.00,,SKC,0.08,VWS V14.00,2013-05-31 03:58:00,